sensor_id;sensor_type;location;lat;lon;timestamp;P1;durP1;ratioP1;P2;durP2;ratioP2
69527;SDS011;57136;51.986;4.468;2023-03-01T00:01:20;24.90;;;13.43;;
69527;SDS011;57136;51.986;4.468;2023-03-01T00:03:47;22.77;;;13.77;;
69527;SDS011;57136;51.986;4.468;2023-03-01T00:06:12;25.70;;;13.43;;
69527;SDS011;57136;51.986;4.468;2023-03-01T00:08:38;25.85;;;14.43;;
69527;SDS011;57136;51.986;4.468;2023-03-01T00:11:09;26.77;;;14.35;;
69527;SDS011;57136;51.986;4.468;2023-03-01T00:13:35;24.77;;;14.30;;
69527;SDS011;57136;51.986;4.468;2023-03-01T00:16:02;21.67;;;12.73;;
69527;SDS011;57136;51.986;4.468;2023-03-01T00:18:28;24.17;;;13.43;;
69527;SDS011;57136;51.986;4.468;2023-03-01T00:20:54;26.00;;;14.27;;
69527;SDS011;57136;51.986;4.468;2023-03-01T00:23:21;22.30;;;13.48;;
69527;SDS011;57136;51.986;4.468;2023-03-01T00:25:47;24.52;;;13.52;;
69527;SDS011;57136;51.986;4.468;2023-03-01T00:28:13;27.02;;;15.30;;
69527;SDS011;57136;51.986;4.468;2023-03-01T00:30:39;23.75;;;14.00;;
69527;SDS011;57136;51.986;4.468;2023-03-01T00:33:05;29.48;;;15.18;;
69527;SDS011;57136;51.986;4.468;2023-03-01T00:35:32;26.63;;;15.13;;
69527;SDS011;57136;51.986;4.468;2023-03-01T00:37:57;25.52;;;14.30;;
69527;SDS011;57136;51.986;4.468;2023-03-01T00:40:24;27.27;;;14.05;;
69527;SDS011;57136;51.986;4.468;2023-03-01T00:42:50;24.95;;;13.95;;
69527;SDS011;57136;51.986;4.468;2023-03-01T00:45:16;29.55;;;15.23;;
69527;SDS011;57136;51.986;4.468;2023-03-01T00:47:41;23.23;;;13.60;;
69527;SDS011;57136;51.986;4.468;2023-03-01T00:50:07;24.85;;;14.30;;
69527;SDS011;57136;51.986;4.468;2023-03-01T00:52:33;24.33;;;14.02;;
69527;SDS011;57136;51.986;4.468;2023-03-01T00:54:58;27.80;;;15.18;;
69527;SDS011;57136;51.986;4.468;2023-03-01T00:57:24;25.13;;;13.73;;
69527;SDS011;57136;51.986;4.468;2023-03-01T00:59:49;25.38;;;14.23;;
69527;SDS011;57136;51.986;4.468;2023-03-01T01:02:14;25.88;;;13.90;;
69527;SDS011;57136;51.986;4.468;2023-03-01T01:04:40;26.67;;;13.95;;
69527;SDS011;57136;51.986;4.468;2023-03-01T01:07:05;27.77;;;14.02;;
69527;SDS011;57136;51.986;4.468;2023-03-01T01:09:31;29.50;;;15.00;;
69527;SDS011;57136;51.986;4.468;2023-03-01T01:11:56;26.92;;;14.13;;
69527;SDS011;57136;51.986;4.468;2023-03-01T01:14:21;25.45;;;13.32;;
69527;SDS011;57136;51.986;4.468;2023-03-01T01:16:47;25.67;;;13.82;;
69527;SDS011;57136;51.986;4.468;2023-03-01T01:19:12;22.05;;;12.98;;
69527;SDS011;57136;51.986;4.468;2023-03-01T01:21:38;26.65;;;13.68;;
69527;SDS011;57136;51.986;4.468;2023-03-01T01:24:11;28.20;;;13.45;;
69527;SDS011;57136;51.986;4.468;2023-03-01T01:29:22;27.77;;;14.45;;
69527;SDS011;57136;51.986;4.468;2023-03-01T01:31:47;27.83;;;14.32;;
69527;SDS011;57136;51.986;4.468;2023-03-01T01:34:14;22.85;;;13.13;;
69527;SDS011;57136;51.986;4.468;2023-03-01T01:36:42;23.10;;;12.00;;
69527;SDS011;57136;51.986;4.468;2023-03-01T01:39:10;25.05;;;13.63;;
69527;SDS011;57136;51.986;4.468;2023-03-01T01:41:39;23.45;;;12.65;;
69527;SDS011;57136;51.986;4.468;2023-03-01T01:46:43;24.10;;;13.63;;
69527;SDS011;57136;51.986;4.468;2023-03-01T01:49:32;26.65;;;13.18;;
69527;SDS011;57136;51.986;4.468;2023-03-01T01:52:12;25.55;;;13.38;;
69527;SDS011;57136;51.986;4.468;2023-03-01T01:54:49;28.50;;;13.40;;
69527;SDS011;57136;51.986;4.468;2023-03-01T01:57:21;25.77;;;14.48;;
69527;SDS011;57136;51.986;4.468;2023-03-01T01:59:51;28.42;;;15.02;;
69527;SDS011;57136;51.986;4.468;2023-03-01T02:02:19;28.67;;;14.90;;
69527;SDS011;57136;51.986;4.468;2023-03-01T02:04:46;26.90;;;13.73;;
69527;SDS011;57136;51.986;4.468;2023-03-01T02:07:14;28.90;;;15.35;;
69527;SDS011;57136;51.986;4.468;2023-03-01T02:09:48;30.58;;;14.35;;
69527;SDS011;57136;51.986;4.468;2023-03-01T02:12:16;27.13;;;14.63;;
69527;SDS011;57136;51.986;4.468;2023-03-01T02:14:45;34.17;;;14.30;;
69527;SDS011;57136;51.986;4.468;2023-03-01T02:17:11;25.48;;;14.52;;
69527;SDS011;57136;51.986;4.468;2023-03-01T02:19:44;28.75;;;13.40;;
69527;SDS011;57136;51.986;4.468;2023-03-01T02:22:36;29.42;;;14.10;;
69527;SDS011;57136;51.986;4.468;2023-03-01T02:30:35;29.05;;;13.98;;
69527;SDS011;57136;51.986;4.468;2023-03-01T02:33:01;26.20;;;14.05;;
69527;SDS011;57136;51.986;4.468;2023-03-01T02:35:35;32.67;;;15.23;;
69527;SDS011;57136;51.986;4.468;2023-03-01T02:38:03;31.90;;;15.80;;
69527;SDS011;57136;51.986;4.468;2023-03-01T02:40:33;36.03;;;16.38;;
69527;SDS011;57136;51.986;4.468;2023-03-01T02:43:00;31.42;;;14.60;;
69527;SDS011;57136;51.986;4.468;2023-03-01T02:45:33;30.10;;;14.27;;
69527;SDS011;57136;51.986;4.468;2023-03-01T02:47:58;33.08;;;15.23;;
69527;SDS011;57136;51.986;4.468;2023-03-01T02:50:39;29.02;;;15.00;;
69527;SDS011;57136;51.986;4.468;2023-03-01T02:53:28;30.88;;;15.32;;
69527;SDS011;57136;51.986;4.468;2023-03-01T02:56:05;29.33;;;15.10;;
69527;SDS011;57136;51.986;4.468;2023-03-01T02:58:30;30.73;;;15.55;;
69527;SDS011;57136;51.986;4.468;2023-03-01T03:00:55;31.30;;;15.75;;
69527;SDS011;57136;51.986;4.468;2023-03-01T03:03:22;32.08;;;15.63;;
69527;SDS011;57136;51.986;4.468;2023-03-01T03:05:48;33.08;;;17.27;;
69527;SDS011;57136;51.986;4.468;2023-03-01T03:08:13;33.17;;;15.80;;
69527;SDS011;57136;51.986;4.468;2023-03-01T03:10:41;36.95;;;15.85;;
69527;SDS011;57136;51.986;4.468;2023-03-01T03:13:11;32.80;;;16.02;;
69527;SDS011;57136;51.986;4.468;2023-03-01T03:15:39;31.70;;;16.08;;
69527;SDS011;57136;51.986;4.468;2023-03-01T03:18:06;30.65;;;15.30;;
69527;SDS011;57136;51.986;4.468;2023-03-01T03:20:34;31.40;;;16.20;;
69527;SDS011;57136;51.986;4.468;2023-03-01T03:23:01;36.60;;;16.77;;
69527;SDS011;57136;51.986;4.468;2023-03-01T03:25:27;31.15;;;15.82;;
69527;SDS011;57136;51.986;4.468;2023-03-01T03:27:54;28.30;;;15.10;;
69527;SDS011;57136;51.986;4.468;2023-03-01T03:30:30;35.55;;;15.90;;
69527;SDS011;57136;51.986;4.468;2023-03-01T03:32:57;31.92;;;14.45;;
69527;SDS011;57136;51.986;4.468;2023-03-01T03:35:24;33.53;;;16.00;;
69527;SDS011;57136;51.986;4.468;2023-03-01T03:37:58;30.40;;;15.13;;
69527;SDS011;57136;51.986;4.468;2023-03-01T03:40:38;34.83;;;16.35;;
69527;SDS011;57136;51.986;4.468;2023-03-01T03:43:08;31.35;;;15.18;;
69527;SDS011;57136;51.986;4.468;2023-03-01T03:45:40;33.40;;;16.00;;
69527;SDS011;57136;51.986;4.468;2023-03-01T03:48:06;42.67;;;16.13;;
69527;SDS011;57136;51.986;4.468;2023-03-01T03:50:34;32.83;;;14.10;;
69527;SDS011;57136;51.986;4.468;2023-03-01T03:53:00;35.60;;;16.75;;
69527;SDS011;57136;51.986;4.468;2023-03-01T03:55:26;28.63;;;14.77;;
69527;SDS011;57136;51.986;4.468;2023-03-01T03:57:55;32.40;;;15.45;;
69527;SDS011;57136;51.986;4.468;2023-03-01T04:00:23;32.85;;;16.00;;
69527;SDS011;57136;51.986;4.468;2023-03-01T04:02:49;31.95;;;15.25;;
69527;SDS011;57136;51.986;4.468;2023-03-01T04:05:16;33.20;;;15.30;;
69527;SDS011;57136;51.986;4.468;2023-03-01T04:07:43;28.70;;;14.57;;
69527;SDS011;57136;51.986;4.468;2023-03-01T04:10:10;30.33;;;15.40;;
69527;SDS011;57136;51.986;4.468;2023-03-01T04:12:38;33.88;;;15.05;;
69527;SDS011;57136;51.986;4.468;2023-03-01T04:15:04;36.28;;;16.83;;
69527;SDS011;57136;51.986;4.468;2023-03-01T04:17:38;32.92;;;15.05;;
69527;SDS011;57136;51.986;4.468;2023-03-01T04:20:05;34.05;;;16.13;;
69527;SDS011;57136;51.986;4.468;2023-03-01T04:22:31;33.97;;;17.30;;
69527;SDS011;57136;51.986;4.468;2023-03-01T04:24:58;37.58;;;18.30;;
69527;SDS011;57136;51.986;4.468;2023-03-01T04:27:31;32.72;;;15.52;;
69527;SDS011;57136;51.986;4.468;2023-03-01T04:30:01;34.35;;;17.60;;
69527;SDS011;57136;51.986;4.468;2023-03-01T04:32:28;45.70;;;19.10;;
69527;SDS011;57136;51.986;4.468;2023-03-01T04:34:53;64.80;;;20.38;;
69527;SDS011;57136;51.986;4.468;2023-03-01T04:37:19;42.08;;;19.45;;
69527;SDS011;57136;51.986;4.468;2023-03-01T04:39:44;48.90;;;19.92;;
69527;SDS011;57136;51.986;4.468;2023-03-01T04:42:12;55.08;;;20.90;;
69527;SDS011;57136;51.986;4.468;2023-03-01T04:44:38;66.70;;;21.10;;
69527;SDS011;57136;51.986;4.468;2023-03-01T04:47:04;54.42;;;21.25;;
69527;SDS011;57136;51.986;4.468;2023-03-01T04:49:30;49.13;;;21.08;;
69527;SDS011;57136;51.986;4.468;2023-03-01T04:51:56;55.80;;;20.73;;
69527;SDS011;57136;51.986;4.468;2023-03-01T04:54:27;77.20;;;20.77;;
69527;SDS011;57136;51.986;4.468;2023-03-01T04:56:55;40.20;;;19.60;;
69527;SDS011;57136;51.986;4.468;2023-03-01T04:59:20;67.60;;;20.50;;
69527;SDS011;57136;51.986;4.468;2023-03-01T05:01:49;51.15;;;20.40;;
69527;SDS011;57136;51.986;4.468;2023-03-01T05:04:15;53.63;;;21.15;;
69527;SDS011;57136;51.986;4.468;2023-03-01T05:06:41;51.60;;;21.33;;
69527;SDS011;57136;51.986;4.468;2023-03-01T05:09:06;47.90;;;21.05;;
69527;SDS011;57136;51.986;4.468;2023-03-01T05:11:33;51.80;;;21.30;;
69527;SDS011;57136;51.986;4.468;2023-03-01T05:14:01;37.95;;;20.45;;
69527;SDS011;57136;51.986;4.468;2023-03-01T05:16:27;47.22;;;18.55;;
69527;SDS011;57136;51.986;4.468;2023-03-01T05:18:53;71.88;;;21.65;;
69527;SDS011;57136;51.986;4.468;2023-03-01T05:21:20;48.35;;;19.73;;
69527;SDS011;57136;51.986;4.468;2023-03-01T05:23:46;45.03;;;20.80;;
69527;SDS011;57136;51.986;4.468;2023-03-01T05:26:12;40.40;;;20.05;;
69527;SDS011;57136;51.986;4.468;2023-03-01T05:28:38;43.60;;;21.25;;
69527;SDS011;57136;51.986;4.468;2023-03-01T05:31:04;47.63;;;20.13;;
69527;SDS011;57136;51.986;4.468;2023-03-01T05:33:37;37.58;;;19.15;;
69527;SDS011;57136;51.986;4.468;2023-03-01T05:36:04;37.28;;;18.55;;
69527;SDS011;57136;51.986;4.468;2023-03-01T05:38:31;35.72;;;18.40;;
69527;SDS011;57136;51.986;4.468;2023-03-01T05:40:56;41.17;;;19.38;;
69527;SDS011;57136;51.986;4.468;2023-03-01T05:43:21;40.97;;;18.92;;
69527;SDS011;57136;51.986;4.468;2023-03-01T05:45:47;48.15;;;19.05;;
69527;SDS011;57136;51.986;4.468;2023-03-01T05:48:12;40.40;;;19.00;;
69527;SDS011;57136;51.986;4.468;2023-03-01T05:50:39;41.15;;;19.63;;
69527;SDS011;57136;51.986;4.468;2023-03-01T05:53:08;42.70;;;18.73;;
69527;SDS011;57136;51.986;4.468;2023-03-01T05:55:38;36.70;;;18.05;;
69527;SDS011;57136;51.986;4.468;2023-03-01T05:58:12;38.63;;;18.58;;
69527;SDS011;57136;51.986;4.468;2023-03-01T06:00:39;38.03;;;18.85;;
69527;SDS011;57136;51.986;4.468;2023-03-01T06:03:05;34.17;;;17.85;;
69527;SDS011;57136;51.986;4.468;2023-03-01T06:05:31;33.40;;;17.95;;
69527;SDS011;57136;51.986;4.468;2023-03-01T06:07:59;34.63;;;17.52;;
69527;SDS011;57136;51.986;4.468;2023-03-01T06:10:26;37.42;;;18.40;;
69527;SDS011;57136;51.986;4.468;2023-03-01T06:12:51;36.78;;;17.25;;
69527;SDS011;57136;51.986;4.468;2023-03-01T06:15:17;34.22;;;17.30;;
69527;SDS011;57136;51.986;4.468;2023-03-01T06:17:44;35.05;;;17.27;;
69527;SDS011;57136;51.986;4.468;2023-03-01T06:20:21;40.00;;;18.63;;
69527;SDS011;57136;51.986;4.468;2023-03-01T06:22:48;38.92;;;18.13;;
69527;SDS011;57136;51.986;4.468;2023-03-01T06:25:15;35.40;;;17.73;;
69527;SDS011;57136;51.986;4.468;2023-03-01T06:27:43;35.38;;;17.88;;
69527;SDS011;57136;51.986;4.468;2023-03-01T06:30:10;33.83;;;17.25;;
69527;SDS011;57136;51.986;4.468;2023-03-01T06:32:38;30.38;;;15.40;;
69527;SDS011;57136;51.986;4.468;2023-03-01T06:35:09;37.50;;;17.40;;
69527;SDS011;57136;51.986;4.468;2023-03-01T06:37:42;34.55;;;17.10;;
69527;SDS011;57136;51.986;4.468;2023-03-01T06:40:08;39.10;;;18.80;;
69527;SDS011;57136;51.986;4.468;2023-03-01T06:42:36;41.47;;;18.95;;
69527;SDS011;57136;51.986;4.468;2023-03-01T06:45:03;33.45;;;16.30;;
69527;SDS011;57136;51.986;4.468;2023-03-01T06:47:30;34.35;;;18.23;;
69527;SDS011;57136;51.986;4.468;2023-03-01T06:49:56;34.97;;;17.60;;
69527;SDS011;57136;51.986;4.468;2023-03-01T06:52:21;34.90;;;16.52;;
69527;SDS011;57136;51.986;4.468;2023-03-01T06:54:47;31.75;;;16.23;;
69527;SDS011;57136;51.986;4.468;2023-03-01T06:57:12;33.60;;;16.45;;
69527;SDS011;57136;51.986;4.468;2023-03-01T06:59:37;34.03;;;16.92;;
69527;SDS011;57136;51.986;4.468;2023-03-01T07:02:03;31.40;;;16.73;;
69527;SDS011;57136;51.986;4.468;2023-03-01T07:04:28;31.50;;;16.27;;
69527;SDS011;57136;51.986;4.468;2023-03-01T07:06:55;32.13;;;17.15;;
69527;SDS011;57136;51.986;4.468;2023-03-01T07:09:21;34.15;;;16.65;;
69527;SDS011;57136;51.986;4.468;2023-03-01T07:11:48;35.15;;;17.23;;
69527;SDS011;57136;51.986;4.468;2023-03-01T07:14:14;36.25;;;17.40;;
69527;SDS011;57136;51.986;4.468;2023-03-01T07:16:40;36.42;;;18.10;;
69527;SDS011;57136;51.986;4.468;2023-03-01T07:19:06;36.40;;;18.13;;
69527;SDS011;57136;51.986;4.468;2023-03-01T07:21:31;39.97;;;18.92;;
69527;SDS011;57136;51.986;4.468;2023-03-01T07:23:57;38.72;;;19.00;;
69527;SDS011;57136;51.986;4.468;2023-03-01T07:26:22;43.03;;;20.17;;
69527;SDS011;57136;51.986;4.468;2023-03-01T07:28:47;38.95;;;17.25;;
69527;SDS011;57136;51.986;4.468;2023-03-01T07:31:13;39.20;;;19.77;;
69527;SDS011;57136;51.986;4.468;2023-03-01T07:33:38;41.22;;;21.05;;
69527;SDS011;57136;51.986;4.468;2023-03-01T07:36:04;38.17;;;18.13;;
69527;SDS011;57136;51.986;4.468;2023-03-01T07:38:29;38.42;;;19.10;;
69527;SDS011;57136;51.986;4.468;2023-03-01T07:40:59;41.75;;;19.52;;
69527;SDS011;57136;51.986;4.468;2023-03-01T07:43:27;39.75;;;20.85;;
69527;SDS011;57136;51.986;4.468;2023-03-01T07:45:53;39.95;;;20.83;;
69527;SDS011;57136;51.986;4.468;2023-03-01T07:48:18;39.25;;;20.65;;
69527;SDS011;57136;51.986;4.468;2023-03-01T07:50:44;37.88;;;19.65;;
69527;SDS011;57136;51.986;4.468;2023-03-01T07:53:09;37.83;;;20.92;;
69527;SDS011;57136;51.986;4.468;2023-03-01T07:55:35;42.85;;;23.23;;
69527;SDS011;57136;51.986;4.468;2023-03-01T07:58:01;38.67;;;19.00;;
69527;SDS011;57136;51.986;4.468;2023-03-01T08:00:26;45.58;;;22.63;;
69527;SDS011;57136;51.986;4.468;2023-03-01T08:02:51;42.55;;;21.08;;
69527;SDS011;57136;51.986;4.468;2023-03-01T08:05:17;42.03;;;21.27;;
69527;SDS011;57136;51.986;4.468;2023-03-01T08:07:42;45.65;;;22.83;;
69527;SDS011;57136;51.986;4.468;2023-03-01T08:10:08;47.40;;;23.52;;
69527;SDS011;57136;51.986;4.468;2023-03-01T08:12:34;46.90;;;22.02;;
69527;SDS011;57136;51.986;4.468;2023-03-01T08:14:59;44.10;;;21.65;;
69527;SDS011;57136;51.986;4.468;2023-03-01T08:17:24;36.83;;;19.58;;
69527;SDS011;57136;51.986;4.468;2023-03-01T08:19:50;38.28;;;19.02;;
69527;SDS011;57136;51.986;4.468;2023-03-01T08:22:15;42.10;;;21.05;;
69527;SDS011;57136;51.986;4.468;2023-03-01T08:24:40;41.95;;;21.40;;
69527;SDS011;57136;51.986;4.468;2023-03-01T08:27:06;42.20;;;21.00;;
69527;SDS011;57136;51.986;4.468;2023-03-01T08:29:31;44.63;;;22.35;;
69527;SDS011;57136;51.986;4.468;2023-03-01T08:31:57;45.55;;;23.27;;
69527;SDS011;57136;51.986;4.468;2023-03-01T08:34:23;41.72;;;21.23;;
69527;SDS011;57136;51.986;4.468;2023-03-01T08:36:48;40.50;;;19.98;;
69527;SDS011;57136;51.986;4.468;2023-03-01T08:39:15;36.58;;;19.98;;
69527;SDS011;57136;51.986;4.468;2023-03-01T08:41:43;39.38;;;20.27;;
69527;SDS011;57136;51.986;4.468;2023-03-01T08:44:09;45.45;;;20.65;;
69527;SDS011;57136;51.986;4.468;2023-03-01T08:46:37;38.28;;;18.95;;
69527;SDS011;57136;51.986;4.468;2023-03-01T08:49:10;37.47;;;19.02;;
69527;SDS011;57136;51.986;4.468;2023-03-01T08:51:37;31.15;;;17.35;;
69527;SDS011;57136;51.986;4.468;2023-03-01T08:54:04;32.05;;;17.63;;
69527;SDS011;57136;51.986;4.468;2023-03-01T08:56:30;33.88;;;16.13;;
69527;SDS011;57136;51.986;4.468;2023-03-01T08:58:55;26.52;;;14.95;;
69527;SDS011;57136;51.986;4.468;2023-03-01T09:01:20;22.42;;;11.90;;
69527;SDS011;57136;51.986;4.468;2023-03-01T09:03:46;23.70;;;12.18;;
69527;SDS011;57136;51.986;4.468;2023-03-01T09:06:12;20.92;;;12.48;;
69527;SDS011;57136;51.986;4.468;2023-03-01T09:08:40;16.27;;;10.18;;
69527;SDS011;57136;51.986;4.468;2023-03-01T09:11:08;16.75;;;10.25;;
69527;SDS011;57136;51.986;4.468;2023-03-01T09:13:35;15.07;;;9.32;;
69527;SDS011;57136;51.986;4.468;2023-03-01T09:16:02;13.57;;;8.98;;
69527;SDS011;57136;51.986;4.468;2023-03-01T09:18:29;20.33;;;9.82;;
69527;SDS011;57136;51.986;4.468;2023-03-01T09:21:05;12.68;;;7.63;;
69527;SDS011;57136;51.986;4.468;2023-03-01T09:23:38;15.57;;;8.43;;
69527;SDS011;57136;51.986;4.468;2023-03-01T09:26:05;13.70;;;8.32;;
69527;SDS011;57136;51.986;4.468;2023-03-01T09:28:33;13.30;;;7.88;;
69527;SDS011;57136;51.986;4.468;2023-03-01T09:31:00;12.68;;;7.32;;
69527;SDS011;57136;51.986;4.468;2023-03-01T09:33:27;12.20;;;7.60;;
69527;SDS011;57136;51.986;4.468;2023-03-01T09:35:59;13.52;;;8.07;;
69527;SDS011;57136;51.986;4.468;2023-03-01T09:38:26;13.00;;;7.35;;
69527;SDS011;57136;51.986;4.468;2023-03-01T09:40:52;11.60;;;7.57;;
69527;SDS011;57136;51.986;4.468;2023-03-01T09:43:20;11.93;;;7.18;;
69527;SDS011;57136;51.986;4.468;2023-03-01T09:45:52;9.27;;;6.28;;
69527;SDS011;57136;51.986;4.468;2023-03-01T09:48:20;12.15;;;6.78;;
69527;SDS011;57136;51.986;4.468;2023-03-01T09:50:49;16.17;;;8.30;;
69527;SDS011;57136;51.986;4.468;2023-03-01T09:53:17;12.25;;;7.07;;
69527;SDS011;57136;51.986;4.468;2023-03-01T09:58:34;10.38;;;6.45;;
69527;SDS011;57136;51.986;4.468;2023-03-01T10:06:31;9.27;;;6.30;;
69527;SDS011;57136;51.986;4.468;2023-03-01T10:11:38;8.82;;;5.30;;
69527;SDS011;57136;51.986;4.468;2023-03-01T10:14:15;9.43;;;5.22;;
69527;SDS011;57136;51.986;4.468;2023-03-01T10:17:05;9.93;;;5.72;;
69527;SDS011;57136;51.986;4.468;2023-03-01T10:22:16;8.63;;;5.45;;
69527;SDS011;57136;51.986;4.468;2023-03-01T10:24:46;7.40;;;4.85;;
69527;SDS011;57136;51.986;4.468;2023-03-01T10:27:23;8.02;;;5.18;;
69527;SDS011;57136;51.986;4.468;2023-03-01T10:32:29;7.28;;;3.95;;
69527;SDS011;57136;51.986;4.468;2023-03-01T10:34:55;7.20;;;4.60;;
69527;SDS011;57136;51.986;4.468;2023-03-01T10:37:22;6.30;;;4.38;;
69527;SDS011;57136;51.986;4.468;2023-03-01T10:42:31;5.20;;;3.55;;
69527;SDS011;57136;51.986;4.468;2023-03-01T10:44:59;5.40;;;3.83;;
69527;SDS011;57136;51.986;4.468;2023-03-01T10:50:44;7.57;;;4.35;;
69527;SDS011;57136;51.986;4.468;2023-03-01T10:53:22;6.78;;;4.55;;
69527;SDS011;57136;51.986;4.468;2023-03-01T10:55:58;8.63;;;4.68;;
69527;SDS011;57136;51.986;4.468;2023-03-01T10:58:32;7.80;;;4.80;;
69527;SDS011;57136;51.986;4.468;2023-03-01T11:01:00;6.85;;;4.70;;
69527;SDS011;57136;51.986;4.468;2023-03-01T11:03:31;7.97;;;5.13;;
69527;SDS011;57136;51.986;4.468;2023-03-01T11:08:38;10.35;;;6.32;;
69527;SDS011;57136;51.986;4.468;2023-03-01T11:13:50;11.30;;;6.90;;
69527;SDS011;57136;51.986;4.468;2023-03-01T11:21:30;8.57;;;5.47;;
69527;SDS011;57136;51.986;4.468;2023-03-01T11:23:59;10.68;;;6.45;;
69527;SDS011;57136;51.986;4.468;2023-03-01T11:26:27;11.07;;;6.93;;
69527;SDS011;57136;51.986;4.468;2023-03-01T11:28:54;10.02;;;6.60;;
69527;SDS011;57136;51.986;4.468;2023-03-01T11:31:31;12.35;;;7.05;;
69527;SDS011;57136;51.986;4.468;2023-03-01T11:33:59;15.07;;;7.15;;
69527;SDS011;57136;51.986;4.468;2023-03-01T11:36:52;9.65;;;6.20;;
69527;SDS011;57136;51.986;4.468;2023-03-01T11:39:58;12.13;;;7.35;;
69527;SDS011;57136;51.986;4.468;2023-03-01T11:42:27;10.32;;;7.00;;
69527;SDS011;57136;51.986;4.468;2023-03-01T11:45:06;10.15;;;6.13;;
69527;SDS011;57136;51.986;4.468;2023-03-01T11:47:41;11.70;;;7.10;;
69527;SDS011;57136;51.986;4.468;2023-03-01T12:01:03;11.63;;;7.60;;
69527;SDS011;57136;51.986;4.468;2023-03-01T12:09:19;10.38;;;7.25;;
69527;SDS011;57136;51.986;4.468;2023-03-01T12:12:26;13.63;;;7.55;;
69527;SDS011;57136;51.986;4.468;2023-03-01T12:20:35;11.95;;;7.63;;
69527;SDS011;57136;51.986;4.468;2023-03-01T12:26:07;13.52;;;8.23;;
69527;SDS011;57136;51.986;4.468;2023-03-01T12:37:03;14.30;;;8.40;;
69527;SDS011;57136;51.986;4.468;2023-03-01T12:45:25;13.45;;;8.27;;
69527;SDS011;57136;51.986;4.468;2023-03-01T12:48:13;10.60;;;7.18;;
69527;SDS011;57136;51.986;4.468;2023-03-01T12:50:56;11.50;;;7.30;;
69527;SDS011;57136;51.986;4.468;2023-03-01T12:53:27;12.05;;;7.25;;
69527;SDS011;57136;51.986;4.468;2023-03-01T12:55:58;12.88;;;7.82;;
69527;SDS011;57136;51.986;4.468;2023-03-01T12:59:01;12.93;;;7.18;;
69527;SDS011;57136;51.986;4.468;2023-03-01T13:04:40;11.43;;;7.07;;
69527;SDS011;57136;51.986;4.468;2023-03-01T13:07:27;11.23;;;7.00;;
69527;SDS011;57136;51.986;4.468;2023-03-01T13:15:31;10.40;;;6.72;;
69527;SDS011;57136;51.986;4.468;2023-03-01T13:17:59;8.77;;;5.80;;
69527;SDS011;57136;51.986;4.468;2023-03-01T13:20:27;9.40;;;6.10;;
69527;SDS011;57136;51.986;4.468;2023-03-01T13:23:00;11.18;;;5.82;;
69527;SDS011;57136;51.986;4.468;2023-03-01T13:25:26;8.38;;;5.03;;
69527;SDS011;57136;51.986;4.468;2023-03-01T13:27:52;7.22;;;4.78;;
69527;SDS011;57136;51.986;4.468;2023-03-01T13:30:56;10.15;;;5.15;;
69527;SDS011;57136;51.986;4.468;2023-03-01T13:35:53;10.45;;;5.45;;
69527;SDS011;57136;51.986;4.468;2023-03-01T13:41:11;7.75;;;4.65;;
69527;SDS011;57136;51.986;4.468;2023-03-01T13:43:38;7.18;;;4.85;;
69527;SDS011;57136;51.986;4.468;2023-03-01T13:46:15;8.02;;;4.70;;
69527;SDS011;57136;51.986;4.468;2023-03-01T13:48:45;6.72;;;5.00;;
69527;SDS011;57136;51.986;4.468;2023-03-01T13:51:14;8.60;;;5.68;;
69527;SDS011;57136;51.986;4.468;2023-03-01T13:53:41;8.45;;;5.63;;
69527;SDS011;57136;51.986;4.468;2023-03-01T13:58:47;7.57;;;5.30;;
69527;SDS011;57136;51.986;4.468;2023-03-01T14:01:22;7.88;;;5.68;;
69527;SDS011;57136;51.986;4.468;2023-03-01T14:03:53;7.45;;;5.10;;
69527;SDS011;57136;51.986;4.468;2023-03-01T14:06:26;6.10;;;4.55;;
69527;SDS011;57136;51.986;4.468;2023-03-01T14:14:36;7.30;;;4.85;;
69527;SDS011;57136;51.986;4.468;2023-03-01T14:27:16;11.15;;;6.05;;
69527;SDS011;57136;51.986;4.468;2023-03-01T14:29:43;9.43;;;5.32;;
69527;SDS011;57136;51.986;4.468;2023-03-01T14:32:17;8.20;;;5.05;;
69527;SDS011;57136;51.986;4.468;2023-03-01T14:34:49;7.32;;;5.05;;
69527;SDS011;57136;51.986;4.468;2023-03-01T14:37:22;6.15;;;4.78;;
69527;SDS011;57136;51.986;4.468;2023-03-01T14:39:51;8.10;;;4.85;;
69527;SDS011;57136;51.986;4.468;2023-03-01T14:42:18;10.02;;;6.03;;
69527;SDS011;57136;51.986;4.468;2023-03-01T14:44:50;9.70;;;6.05;;
69527;SDS011;57136;51.986;4.468;2023-03-01T14:47:24;6.93;;;5.03;;
69527;SDS011;57136;51.986;4.468;2023-03-01T14:49:59;8.25;;;5.60;;
69527;SDS011;57136;51.986;4.468;2023-03-01T14:52:28;9.93;;;5.55;;
69527;SDS011;57136;51.986;4.468;2023-03-01T14:54:59;8.55;;;5.22;;
69527;SDS011;57136;51.986;4.468;2023-03-01T14:57:27;7.38;;;4.00;;
69527;SDS011;57136;51.986;4.468;2023-03-01T14:59:54;8.65;;;4.97;;
69527;SDS011;57136;51.986;4.468;2023-03-01T15:02:23;7.65;;;4.68;;
69527;SDS011;57136;51.986;4.468;2023-03-01T15:04:52;6.22;;;4.00;;
69527;SDS011;57136;51.986;4.468;2023-03-01T15:07:21;9.10;;;4.75;;
69527;SDS011;57136;51.986;4.468;2023-03-01T15:09:49;5.47;;;4.07;;
69527;SDS011;57136;51.986;4.468;2023-03-01T15:14:52;8.77;;;5.05;;
69527;SDS011;57136;51.986;4.468;2023-03-01T15:20:04;7.07;;;4.85;;
69527;SDS011;57136;51.986;4.468;2023-03-01T15:22:32;7.00;;;4.68;;
69527;SDS011;57136;51.986;4.468;2023-03-01T15:24:59;7.10;;;4.38;;
69527;SDS011;57136;51.986;4.468;2023-03-01T15:27:25;7.05;;;4.80;;
69527;SDS011;57136;51.986;4.468;2023-03-01T15:29:53;5.40;;;3.85;;
69527;SDS011;57136;51.986;4.468;2023-03-01T15:34:58;7.65;;;4.50;;
69527;SDS011;57136;51.986;4.468;2023-03-01T15:37:47;7.30;;;4.07;;
69527;SDS011;57136;51.986;4.468;2023-03-01T15:40:27;7.63;;;4.40;;
69527;SDS011;57136;51.986;4.468;2023-03-01T15:43:00;8.38;;;4.55;;
69527;SDS011;57136;51.986;4.468;2023-03-01T15:45:28;6.70;;;3.92;;
69527;SDS011;57136;51.986;4.468;2023-03-01T15:47:56;6.53;;;4.60;;
69527;SDS011;57136;51.986;4.468;2023-03-01T15:50:27;9.88;;;4.20;;
69527;SDS011;57136;51.986;4.468;2023-03-01T15:52:54;6.32;;;4.10;;
69527;SDS011;57136;51.986;4.468;2023-03-01T15:58:04;7.30;;;4.82;;
69527;SDS011;57136;51.986;4.468;2023-03-01T16:00:34;9.15;;;5.07;;
69527;SDS011;57136;51.986;4.468;2023-03-01T16:02:59;9.05;;;4.95;;
69527;SDS011;57136;51.986;4.468;2023-03-01T16:05:26;8.00;;;4.55;;
69527;SDS011;57136;51.986;4.468;2023-03-01T16:07:54;7.10;;;4.50;;
69527;SDS011;57136;51.986;4.468;2023-03-01T16:10:19;9.15;;;5.32;;
69527;SDS011;57136;51.986;4.468;2023-03-01T16:12:48;13.00;;;5.88;;
69527;SDS011;57136;51.986;4.468;2023-03-01T16:17:45;10.00;;;6.05;;
69527;SDS011;57136;51.986;4.468;2023-03-01T16:20:11;6.85;;;5.00;;
69527;SDS011;57136;51.986;4.468;2023-03-01T16:22:40;10.18;;;5.38;;
69527;SDS011;57136;51.986;4.468;2023-03-01T16:25:06;8.30;;;5.35;;
69527;SDS011;57136;51.986;4.468;2023-03-01T16:27:51;8.60;;;5.05;;
69527;SDS011;57136;51.986;4.468;2023-03-01T16:30:18;7.15;;;4.60;;
69527;SDS011;57136;51.986;4.468;2023-03-01T16:32:46;9.02;;;4.13;;
69527;SDS011;57136;51.986;4.468;2023-03-01T16:35:13;7.25;;;4.63;;
69527;SDS011;57136;51.986;4.468;2023-03-01T16:37:40;7.78;;;5.32;;
69527;SDS011;57136;51.986;4.468;2023-03-01T16:40:06;9.75;;;5.32;;
69527;SDS011;57136;51.986;4.468;2023-03-01T16:42:41;7.82;;;4.45;;
69527;SDS011;57136;51.986;4.468;2023-03-01T16:45:07;6.95;;;4.80;;
69527;SDS011;57136;51.986;4.468;2023-03-01T16:47:33;8.43;;;4.95;;